• Join FlightAware (Why Join?)
  • Login
  • US Flag 
08:47PM EDT


 

Airport Tracker/Info


-or-


 

Live Flight TrackerFlight Track Log ✈ CTL13 ✈ 26-Jun-2013 ✈ KMDW - KGRR

Flight Track Log - Related Links

Times and Time Zones

All times are in EDT time to prevent confusion due to time zone crossing. See the CTL13 flight status page for this flight to view local times or setup timezone preferences in your user account.

Time Position Orientation Groundspeed Altitude Reporting Facility
EDT Latitude Longitude Course Direction KTS MPH feet Rate Location/Type
10:43PM 41.8000 -87.6833 93° East 139 160 1,900  Level Chicago TRACON
10:44PM 41.8000 -87.6167 90° East 151 174 2,700 660 Climbing Chicago TRACON
10:45PM 41.8000 -87.5667 90° East 149 171 3,400 660 Climbing Chicago TRACON
10:46PM 41.8000 -87.5167 90° East 147 169 4,100 720 Climbing Chicago TRACON
10:47PM 41.8064 -87.4647 81° East 148 170 4,900 480 Climbing Chicago Center
10:48PM 41.7795 -87.3791 93° East  Level FlightAware Approximate
10:48PM 41.8075 -87.4075 88° East 150 173 5,100  Level Chicago Center
10:49PM 41.8097 -87.3242 88° East 179 206 5,100  Level Chicago Center
10:50PM 41.8217 -87.2569 77° East 184 212 5,100  Level Chicago Center
10:51PM 41.8394 -87.1942 69° East 183 211 5,200 60 Climbing Chicago Center
10:52PM 41.8722 -87.1428 49° Northeast 181 208 5,300 240 Climbing Chicago Center
10:53PM 41.9011 -87.0944 51° Northeast 170 196 5,700 420 Climbing Chicago Center
10:54PM 41.9297 -87.0456 52° Northeast 168 193 6,200 180 Climbing Chicago Center
10:55PM 41.9681 -86.9839 50° Northeast 179 206 6,100 240 Descending Chicago Center
10:56PM 41.9972 -86.9319 53° Northeast 176 203 6,700 480 Climbing Chicago Center
10:57PM 42.0242 -86.8886 50° Northeast 157 181 7,200 180 Climbing Chicago Center
10:58PM 42.0556 -86.8389 50° Northeast 161 185 7,100 -60 Descending Chicago Center
10:59PM 42.0819 -86.7936 52° Northeast 153 176 7,100  Level Chicago Center
11:00PM 42.1094 -86.7467 52° Northeast 158 182 7,100  Level Chicago Center
11:01PM 42.1375 -86.7006 51° Northeast 159 183 7,100  Level Chicago Center
11:02PM 42.1633 -86.6531 54° Northeast 158 182 7,100  Level Chicago Center
11:03PM 42.1831 -86.6008 63° Northeast 157 181 7,200  Climbing Chicago Center
11:04PM 42.2050 -86.5489 60° Northeast 158 182 7,100 -60 Descending Chicago Center
11:05PM 42.2297 -86.4881 61° Northeast 155 178 7,100  Level Chicago Center
11:06PM 42.2506 -86.4369 61° Northeast 156 180 7,100  Level Chicago Center
11:07PM 42.2731 -86.3861 59° Northeast 157 181 7,100  Level Chicago Center
11:08PM 42.2953 -86.3400 57° Northeast 151 174 7,200  Climbing Chicago Center
11:09PM 42.3158 -86.2908 61° Northeast 156 180 7,100 -60 Descending Chicago Center
11:10PM 42.3422 -86.2297 60° Northeast 158 182 7,100  Level Chicago Center
11:11PM 42.3658 -86.1808 57° Northeast 157 181 7,100  Level Chicago Center
11:12PM 42.3964 -86.1378 46° Northeast 159 183 7,100 -180 Level Chicago Center
11:13PM 42.4289 -86.0967 43° Northeast 160 184 6,800 -480 Descending Chicago Center
11:14PM 42.4642 -86.0544 41° Northeast 167 192 6,200 -600 Descending Chicago Center
11:15PM 42.4986 -86.0078 45° Northeast 173 199 5,600 -540 Descending Chicago Center
11:17PM 42.5339 -85.9594 45° Northeast 178 205 5,100 -540 Descending Chicago Center
11:18PM 42.5694 -85.9158 42° Northeast 175 201 4,600 -540 Descending Chicago Center
11:19PM 42.6128 -85.8692 38° Northeast 169 194 4,000 -540 Descending Chicago Center
11:20PM 42.6506 -85.8339 34° Northeast 167 192 3,600 -300 Descending Chicago Center
11:21PM 42.6867 -85.7956 38° Northeast 166 191 3,400 -300 Descending Chicago Center
11:22PM 42.7156 -85.7486 50° Northeast 163 188 3,100 -300 Descending Chicago Center
11:23PM 42.7456 -85.7025 48° Northeast 164 189 2,900 -360 Descending Chicago Center
11:24PM 42.7742 -85.6600 47° Northeast 157 181 2,400 -480 Descending Chicago Center
11:25PM 42.8078 -85.6111 47° Northeast 151 174 2,000 -240 Descending Chicago Center
11:26PM 42.8319 -85.5719 50° Northeast 145 167 2,000 -180 Level Chicago Center
11:27PM 42.8453 -85.5300 67° East 132 152 1,700 -480 Descending Chicago Center
11:28PM 42.8686 -85.5103 32° Northeast 117 135 1,100 -600 Descending Chicago Center
11:30PM 42.8667 -85.5167 56° Northeast  Level FlightAware Approximate